• Join FlightAware (Why Join?)
  • Login
  • US Flag 
03:38AM EDT


 

Airport Tracker/Info


-or-


 

Live Flight TrackerFlight Track Log ✈ ASQ4690 ✈ 02-May-2012 ✈ KDCA - KCLE

Flight Track Log - Related Links

Times and Time Zones

All times are in EDT time to prevent confusion due to time zone crossing. See the ASQ4690 flight status page for this flight to view local times or setup timezone preferences in your user account.

Time Position Orientation Groundspeed Altitude Reporting Facility
EDT Latitude Longitude Course Direction KTS MPH feet Rate Location/Type
02:52PM 38.8833 -77.0667 316° Northwest 190 219 1,600  Level Potomac TRACON
02:54PM 38.9800 -77.1883 299° West 244 281 6,300 2,100 Climbing Washington Center
02:55PM 39.0122 -77.2639 307° West 244 281 8,500 1,680 Climbing Washington Center
02:57PM 39.1078 -77.4267 324° Northwest 267 307 11,400 1,440 Climbing Washington Center
02:58PM 39.1756 -77.4900 326° Northwest 285 328 12,900 1,440 Climbing Washington Center
02:59PM 39.2475 -77.5533 324° Northwest 306 352 14,300 1,260 Climbing Washington Center
03:00PM 39.3214 -77.6225 324° Northwest 318 366 15,500 1,080 Climbing Washington Center
03:01PM 39.3953 -77.6917 324° Northwest 318 366 16,500 840 Climbing Washington Center
03:02PM 39.4733 -77.7639 324° Northwest 337 388 17,300 840 Climbing Washington Center
03:03PM 39.5531 -77.8389 325° Northwest 348 400 18,200 900 Climbing Washington Center
03:04PM 39.6372 -77.9142 325° Northwest 353 406 19,100 840 Climbing Washington Center
03:05PM 39.7228 -77.9919 324° Northwest 364 419 20,000 900 Climbing Cleveland Center
03:06PM 39.8103 -78.0750 315° West 376 433 21,000 900 Climbing Cleveland Center
03:07PM 39.8853 -78.1725 310° West 382 440 21,800 1,200 Climbing Cleveland Center
03:08PM 39.9628 -78.2942 310° West 391 450 23,500 1,320 Climbing Cleveland Center
03:09PM 40.0317 -78.4003 313° West 391 450 24,500 1,020 Climbing Cleveland Center
03:10PM 40.0958 -78.4906 309° West 391 450 25,600 720 Climbing Cleveland Center
03:11PM 40.1644 -78.5997 310° West 391 450 26,000 180 Climbing Cleveland Center
03:12PM 40.2372 -78.7119 310° West 391 450 26,000  Level Cleveland Center
03:13PM 40.3144 -78.8322 306° West 403 464 26,000  Level Cleveland Center
03:14PM 40.3850 -78.9586 308° West 422 486 26,000  Level Cleveland Center
03:15PM 40.4597 -79.0850 306° West 433 498 26,000  Level Cleveland Center
03:16PM 40.5300 -79.2117 306° West 438 504 26,000  Level Cleveland Center
03:17PM 40.6025 -79.3417 307° West 443 510 26,000  Level Cleveland Center
03:18PM 40.6767 -79.4717 305° West 443 510 26,000 -60 Level Cleveland Center
03:19PM 40.7467 -79.6019 306° West 448 516 25,900 -660 Descending Cleveland Center
03:20PM 40.8144 -79.7272 316° Northwest 438 504 24,700 -960 Descending Cleveland Center
03:21PM 40.8944 -79.8278 322° Northwest 416 479 24,000 -360 Descending Cleveland Center
03:22PM 40.9844 -79.9203 321° Northwest 402 463 24,000  Level Cleveland Center
03:23PM 41.0725 -80.0158 307° West 402 463 24,000  Level Cleveland Center
03:24PM 41.1378 -80.1308 295° West 395 455 24,000  Level Cleveland Center
03:25PM 41.1842 -80.2658 294° West 395 455 24,000  Level Cleveland Center
03:26PM 41.2303 -80.4008 296° West 402 463 24,000 -720 Level Cleveland Center
03:27PM 41.2783 -80.5306 295° West 396 456 22,600 -2,160 Descending Cleveland Center
03:28PM 41.3219 -80.6550 297° West 388 447 19,700 -2,820 Descending Cleveland Center
03:29PM 41.3678 -80.7742 297° West 371 427 17,000 -2,820 Descending Cleveland Center
03:30PM 41.4072 -80.8794 298° West 329 379 14,500 -2,400 Descending Cleveland Center
03:31PM 41.4403 -80.9625 296° West 290 334 13,000 -1,980 Descending Cleveland Center
03:32PM 41.4753 -81.0597 298° West 285 328 11,000 -1,680 Descending Cleveland Center
03:32PM 41.5042 -81.1322 278° West 286 329 10,000 -900 Descending Cleveland Center
03:33PM 41.5142 -81.2319 272° West 248 285 9,400 -1,260 Descending Cleveland Center
03:35PM 41.5175 -81.3431 270° West 238 274 7,100 -1,380 Descending Cleveland Center
03:36PM 41.5169 -81.4400 271° West 247 284 6,000 -1,140 Descending Cleveland Center
03:37PM 41.5183 -81.5261 271° West 237 273 4,700 -1,080 Descending Cleveland Center
03:38PM 41.5197 -81.6064 267° West 238 274 4,000 -420 Descending Cleveland Center
03:39PM 41.5169 -81.6897 230° Southwest 223 257 3,900 -540 Descending Cleveland Center
03:40PM 41.4831 -81.7444 230° Southwest 180 207 3,000 -900 Descending Cleveland Center
03:41PM 41.4575 -81.7856 226° Southwest 141 162 2,100 -840 Descending Cleveland Center
03:42PM 41.4278 -81.8267 226° Southwest 133 153 1,300 -720 Descending Cleveland Center